Time;durP1;ratioP1;P1;durP2;ratioP2;P2;SDS_P1;SDS_P2;PMS_P1;PMS_P2;Temp;Humidity;BMP_temperature;BMP_pressure;BME280_temperature;BME280_humidity;BME280_pressure;Samples;Min_cycle;Max_cycle;Signal;HPM_P1;HPM_P2
2021/06/03 00:00:58;;;;;;;7.77;4.00;;;;;;;14.89;53.22;96513.47;5076721;28;20028;-78
2021/06/03 00:03:30;;;;;;;10.83;4.00;;;;;;;14.88;53.34;96513.63;5059700;28;20114;-78
2021/06/03 00:05:59;;;;;;;8.07;3.83;;;;;;;14.85;52.99;96514.78;5084193;28;20063;-79
2021/06/03 00:08:27;;;;;;;10.87;3.80;;;;;;;14.88;53.21;96516.25;5058012;28;20027;-78
2021/06/03 00:10:59;;;;;;;7.33;3.50;;;;;;;14.74;54.50;96518.69;5056012;28;20034;-78
2021/06/03 00:13:27;;;;;;;7.33;3.63;;;;;;;14.79;53.79;96516.34;5039669;28;20066;-78
2021/06/03 00:15:55;;;;;;;7.50;3.73;;;;;;;14.79;53.83;96508.41;5063136;28;20025;-78
2021/06/03 00:18:21;;;;;;;7.03;3.73;;;;;;;14.74;54.34;96517.88;5047494;28;20051;-78
2021/06/03 00:20:48;;;;;;;7.47;3.97;;;;;;;14.65;54.66;96516.28;5063517;28;20552;-78
2021/06/03 00:23:13;;;;;;;7.37;3.40;;;;;;;14.55;55.01;96513.88;5065295;28;20040;-78
2021/06/03 00:25:39;;;;;;;9.60;3.60;;;;;;;14.57;55.28;96509.25;5061177;28;20033;-78
2021/06/03 00:28:06;;;;;;;6.07;2.90;;;;;;;14.47;55.33;96517.38;5049028;28;20032;-78
2021/06/03 00:30:33;;;;;;;10.10;2.93;;;;;;;14.45;55.28;96523.84;5048001;28;20123;-78
2021/06/03 00:32:59;;;;;;;7.03;3.00;;;;;;;14.34;56.21;96523.25;5059290;28;20723;-78
2021/06/03 00:35:27;;;;;;;8.73;3.10;;;;;;;14.32;55.90;96524.44;5052981;28;20020;-78
2021/06/03 00:37:52;;;;;;;9.00;3.53;;;;;;;14.32;55.62;96522.63;5043080;28;20044;-78
2021/06/03 00:40:21;;;;;;;7.83;3.33;;;;;;;14.30;55.89;96521.16;5041956;28;20028;-78
2021/06/03 00:42:47;;;;;;;6.90;3.23;;;;;;;14.20;56.20;96523.19;5055861;28;20032;-78
2021/06/03 00:45:36;;;;;;;6.23;3.90;;;;;;;14.04;57.64;96530.22;5060610;28;20028;-78
2021/06/03 00:48:03;;;;;;;4.77;3.10;;;;;;;13.98;57.30;96536.19;5034566;28;20041;-78
2021/06/03 00:50:38;;;;;;;5.90;3.47;;;;;;;13.97;57.92;96539.03;5064982;28;20024;-78
2021/06/03 00:53:08;;;;;;;7.70;4.03;;;;;;;13.87;57.79;96533.94;5057078;28;20062;-78
2021/06/03 00:55:36;;;;;;;4.83;3.17;;;;;;;13.93;58.00;96529.78;5039574;28;20229;-78
2021/06/03 00:58:04;;;;;;;6.60;3.20;;;;;;;13.94;57.16;96536.72;5052405;28;20498;-78
2021/06/03 01:00:30;;;;;;;10.53;4.30;;;;;;;13.94;57.04;96537.53;5042221;28;20021;-78
2021/06/03 01:02:57;;;;;;;5.40;3.30;;;;;;;13.87;58.27;96541.88;5039411;28;20032;-78
2021/06/03 01:05:27;;;;;;;7.33;3.67;;;;;;;13.80;58.07;96543.56;5041715;28;20379;-78
2021/06/03 01:07:56;;;;;;;5.67;3.67;;;;;;;13.78;57.16;96541.09;5041309;28;20127;-78
2021/06/03 01:10:31;;;;;;;5.30;2.97;;;;;;;13.79;58.04;96545.38;5050701;28;20076;-78
2021/06/03 01:13:20;;;;;;;4.67;3.00;;;;;;;13.62;58.47;96555.19;5061115;28;20036;-77
2021/06/03 01:15:48;;;;;;;5.87;3.23;;;;;;;13.58;58.89;96555.69;5077427;28;20071;-77
2021/06/03 01:18:15;;;;;;;9.40;3.83;;;;;;;13.32;58.85;96562.03;5051976;28;20050;-78
2021/06/03 01:20:46;;;;;;;7.17;3.40;;;;;;;13.43;58.97;96563.50;5063999;28;20105;-78
2021/06/03 01:23:28;;;;;;;5.43;2.83;;;;;;;13.47;59.56;96566.63;5078313;28;20039;-78
2021/06/03 01:25:54;;;;;;;10.00;4.57;;;;;;;13.53;59.78;96569.41;5059960;28;20037;-78
2021/06/03 01:28:24;;;;;;;8.97;4.50;;;;;;;13.54;59.25;96567.59;5076345;28;20031;-78
2021/06/03 01:30:55;;;;;;;14.93;6.27;;;;;;;13.29;60.21;96570.28;5061575;28;20038;-78
2021/06/03 01:33:27;;;;;;;10.67;4.27;;;;;;;13.24;61.08;96566.47;5076357;28;20543;-78
2021/06/03 01:35:57;;;;;;;6.67;3.63;;;;;;;13.12;61.10;96560.72;5064910;28;20076;-78
2021/06/03 01:38:37;;;;;;;6.15;2.92;;;;;;;13.15;60.41;96558.56;5077283;28;20515;-79
2021/06/03 01:41:06;;;;;;;7.33;3.03;;;;;;;13.21;59.66;96557.91;5059511;28;20097;-78
2021/06/03 01:43:35;;;;;;;5.53;2.70;;;;;;;13.13;60.14;96563.19;5065393;28;20183;-78
2021/06/03 01:46:02;;;;;;;5.60;3.00;;;;;;;13.11;59.94;96567.81;5079734;28;20043;-78
2021/06/03 01:48:57;;;;;;;7.00;3.33;;;;;;;13.07;59.77;96560.38;5070072;28;20102;-79
2021/06/03 01:51:25;;;;;;;7.07;3.23;;;;;;;13.13;59.85;96565.81;5063888;28;20028;-77
2021/06/03 01:54:29;;;;;;;7.43;3.03;;;;;;;13.11;60.01;96562.53;5077432;28;20370;-78
2021/06/03 01:56:57;;;;;;;5.13;3.63;;;;;;;13.02;60.46;96560.91;5076338;28;20032;-78
2021/06/03 01:59:24;;;;;;;8.00;3.30;;;;;;;12.94;60.70;96566.16;5065951;28;20031;-78
2021/06/03 02:01:53;;;;;;;6.30;3.00;;;;;;;12.94;60.53;96567.00;5061451;28;20032;-78
2021/06/03 02:04:19;;;;;;;7.10;3.23;;;;;;;12.79;61.17;96558.09;5070393;28;20490;-78
2021/06/03 02:06:45;;;;;;;9.80;3.53;;;;;;;12.62;62.37;96562.53;5074726;28;20043;-78
2021/06/03 02:09:13;;;;;;;6.07;3.30;;;;;;;12.75;62.12;96559.41;5072288;28;20089;-78
2021/06/03 02:11:47;;;;;;;8.43;4.10;;;;;;;12.76;62.33;96563.69;5049681;28;20040;-78
2021/06/03 02:14:24;;;;;;;8.63;3.40;;;;;;;12.82;61.95;96564.88;5058609;28;20131;-78
2021/06/03 02:17:08;;;;;;;6.27;2.93;;;;;;;12.81;61.98;96564.03;5066367;28;20031;-78
2021/06/03 02:19:45;;;;;;;7.23;3.23;;;;;;;12.82;62.24;96564.88;5063524;28;20047;-77
2021/06/03 02:22:11;;;;;;;6.40;3.60;;;;;;;12.81;61.72;96564.03;5053651;28;20113;-78
2021/06/03 02:24:38;;;;;;;10.57;3.40;;;;;;;12.85;61.18;96568.00;5054100;28;20390;-78
2021/06/03 02:27:06;;;;;;;5.00;3.30;;;;;;;12.79;61.86;96568.66;5080333;28;20122;-78
2021/06/03 02:29:32;;;;;;;5.27;3.10;;;;;;;12.83;61.64;96571.78;5059058;28;20513;-78
2021/06/03 02:32:15;;;;;;;5.23;3.27;;;;;;;12.91;61.67;96571.78;5068254;28;20038;-78
2021/06/03 02:34:48;;;;;;;8.13;3.20;;;;;;;12.72;62.40;96575.59;5085053;28;20024;-78
2021/06/03 02:37:16;;;;;;;6.63;3.40;;;;;;;12.65;63.31;96578.03;5067297;28;20549;-78
2021/06/03 02:39:48;;;;;;;5.93;3.10;;;;;;;12.55;63.89;96577.38;5071665;28;20024;-78
2021/06/03 02:42:16;;;;;;;7.13;3.30;;;;;;;12.49;63.69;96588.56;5045579;28;20046;-77
2021/06/03 02:44:44;;;;;;;10.70;4.50;;;;;;;12.54;63.55;96585.44;5057623;28;20111;-78
2021/06/03 02:47:10;;;;;;;10.03;4.50;;;;;;;12.55;63.48;96585.28;5061401;28;20482;-78
2021/06/03 02:49:37;;;;;;;12.00;4.53;;;;;;;12.62;63.24;96585.47;5065060;28;20389;-78
2021/06/03 02:52:07;;;;;;;7.40;4.43;;;;;;;12.58;63.83;96586.78;5060752;28;20032;-78
2021/06/03 02:54:35;;;;;;;7.20;4.47;;;;;;;12.55;63.99;96584.47;5074353;28;20031;-78
2021/06/03 02:57:01;;;;;;;10.77;3.73;;;;;;;12.44;64.88;96596.13;5055848;28;20021;-79
2021/06/03 02:59:28;;;;;;;6.60;4.03;;;;;;;12.37;65.45;96595.97;5068728;28;20146;-78
2021/06/03 03:02:17;;;;;;;6.50;3.40;;;;;;;12.33;65.08;96596.44;5060671;28;20050;-78
2021/06/03 03:04:43;;;;;;;9.93;4.63;;;;;;;12.28;65.43;96604.84;5052754;28;20043;-78
2021/06/03 03:07:10;;;;;;;6.67;3.50;;;;;;;12.34;64.96;96606.84;5056365;28;20024;-78
2021/06/03 03:09:36;;;;;;;10.07;3.67;;;;;;;12.39;65.23;96609.00;5057500;28;20115;-78
2021/06/03 03:12:03;;;;;;;7.77;4.20;;;;;;;12.31;65.55;96615.09;5074263;28;20026;-78
2021/06/03 03:14:31;;;;;;;7.03;3.30;;;;;;;12.29;65.75;96603.84;5061595;28;20040;-78
2021/06/03 03:16:57;;;;;;;7.53;4.43;;;;;;;12.17;66.39;96613.03;5063792;28;20024;-78
2021/06/03 03:19:25;;;;;;;6.60;3.43;;;;;;;12.09;66.52;96613.03;5054711;28;20025;-79
2021/06/03 03:21:53;;;;;;;8.70;4.00;;;;;;;12.23;66.01;96625.59;5068925;28;20035;-79
2021/06/03 03:24:19;;;;;;;8.13;4.40;;;;;;;12.27;66.02;96617.22;5059531;28;20036;-79
2021/06/03 03:26:45;;;;;;;12.10;5.03;;;;;;;12.30;65.33;96618.69;5064962;28;20024;-79
2021/06/03 03:29:11;;;;;;;12.87;5.83;;;;;;;12.33;65.12;96621.00;5061537;28;20033;-79
2021/06/03 03:31:37;;;;;;;12.47;6.40;;;;;;;12.33;65.19;96628.09;5066678;28;20022;-79
2021/06/03 03:34:04;;;;;;;12.70;5.77;;;;;;;12.32;65.59;96619.38;5058328;28;20032;-78
2021/06/03 03:36:37;;;;;;;9.70;4.33;;;;;;;12.34;65.47;96627.09;5052955;28;20074;-79
2021/06/03 03:39:05;;;;;;;5.80;3.40;;;;;;;12.40;65.43;96622.00;5060022;28;20038;-79
2021/06/03 03:41:32;;;;;;;7.27;4.17;;;;;;;12.38;65.69;96634.56;5046777;28;20553;-78
2021/06/03 03:43:59;;;;;;;11.00;5.27;;;;;;;12.40;65.66;96634.38;5059427;28;20170;-78
2021/06/03 03:46:26;;;;;;;10.27;4.37;;;;;;;12.37;65.45;96634.69;5077643;28;20119;-79
2021/06/03 03:48:52;;;;;;;6.13;3.80;;;;;;;12.35;65.90;96632.22;5074392;28;20032;-79
2021/06/03 03:51:18;;;;;;;7.43;3.60;;;;;;;12.20;66.76;96631.19;5060601;28;20073;-78
2021/06/03 03:53:44;;;;;;;9.23;3.60;;;;;;;12.27;66.47;96632.19;5083695;28;20052;-78
2021/06/03 03:56:17;;;;;;;6.15;3.70;;;;;;;12.32;66.29;96629.91;5070168;28;20043;-78
2021/06/03 03:58:44;;;;;;;5.57;3.57;;;;;;;12.41;65.92;96636.06;5062877;28;20040;-78
2021/06/03 04:01:11;;;;;;;7.23;3.77;;;;;;;12.39;66.02;96636.19;5089326;28;20496;-78
2021/06/03 04:03:39;;;;;;;9.60;3.70;;;;;;;12.46;65.71;96641.66;5087539;28;20036;-78
2021/06/03 04:06:06;;;;;;;9.50;3.93;;;;;;;12.40;66.16;96645.75;5059008;28;20113;-78
2021/06/03 04:08:35;;;;;;;16.07;7.33;;;;;;;12.46;65.84;96646.94;5053793;28;20028;-78
2021/06/03 04:11:01;;;;;;;28.33;9.20;;;;;;;12.56;65.82;96644.97;5072108;28;20024;-78
2021/06/03 04:13:30;;;;;;;24.53;8.90;;;;;;;12.66;65.71;96642.19;5059451;28;20039;-78
2021/06/03 04:16:06;;;;;;;21.43;7.87;;;;;;;12.76;65.23;96644.69;5063390;28;20393;-78
2021/06/03 04:18:33;;;;;;;21.00;7.70;;;;;;;12.83;64.90;96641.22;5063233;28;20504;-78
2021/06/03 04:20:59;;;;;;;10.17;4.73;;;;;;;12.89;64.69;96651.13;5063427;28;20032;-78
2021/06/03 04:23:25;;;;;;;9.13;4.77;;;;;;;12.88;65.20;96654.78;5063515;28;20046;-78
2021/06/03 04:25:51;;;;;;;7.17;4.10;;;;;;;12.95;64.86;96653.13;5067914;28;20508;-77
2021/06/03 04:28:17;;;;;;;8.53;4.17;;;;;;;12.92;65.00;96648.19;5084458;28;20406;-77
2021/06/03 04:30:45;;;;;;;5.93;3.40;;;;;;;13.01;65.00;96656.09;5065444;28;20024;-78
2021/06/03 04:33:11;;;;;;;8.00;4.00;;;;;;;13.06;64.82;96656.44;5053787;28;20040;-78
2021/06/03 04:35:38;;;;;;;11.00;4.33;;;;;;;13.07;66.02;96666.00;5052034;28;20027;-78
2021/06/03 04:38:29;;;;;;;8.63;4.40;;;;;;;13.09;66.73;96659.56;5076450;28;20040;-78
2021/06/03 04:40:55;;;;;;;6.03;3.70;;;;;;;13.19;65.87;96664.69;5076144;28;20028;-78
2021/06/03 04:43:20;;;;;;;6.43;3.53;;;;;;;13.18;66.11;96669.16;5075886;28;20084;-78
2021/06/03 04:45:52;;;;;;;6.67;3.90;;;;;;;13.33;65.57;96660.59;5081295;28;20060;-78
2021/06/03 04:48:18;;;;;;;9.13;4.00;;;;;;;13.48;64.58;96664.22;5062993;28;20118;-78
2021/06/03 04:50:45;;;;;;;9.03;4.47;;;;;;;13.54;63.96;96668.00;5060268;28;20040;-78
2021/06/03 04:53:11;;;;;;;9.03;4.37;;;;;;;13.65;63.99;96675.59;5076458;28;20028;-78
2021/06/03 04:55:37;;;;;;;6.47;3.90;;;;;;;13.77;63.62;96676.06;5064323;28;20652;-78
2021/06/03 04:58:14;;;;;;;7.17;3.80;;;;;;;13.89;62.87;96675.53;5061750;28;20035;-79
2021/06/03 05:00:42;;;;;;;5.90;3.90;;;;;;;14.05;62.38;96679.13;5085601;28;20063;-78
2021/06/03 05:03:09;;;;;;;5.83;3.80;;;;;;;14.21;62.32;96679.06;5061093;28;20039;-78
2021/06/03 05:05:39;;;;;;;11.43;3.97;;;;;;;14.34;62.26;96679.34;5055027;28;20390;-77
2021/06/03 05:08:06;;;;;;;6.50;3.83;;;;;;;14.56;61.84;96683.09;5058988;28;20437;-78
2021/06/03 05:10:32;;;;;;;6.27;3.93;;;;;;;14.70;61.52;96678.06;5080894;28;20398;-78
2021/06/03 05:12:58;;;;;;;5.93;3.53;;;;;;;14.77;61.82;96682.50;5079913;28;20036;-78
2021/06/03 05:15:25;;;;;;;7.63;4.23;;;;;;;14.81;62.09;96673.19;5091851;28;20442;-77
2021/06/03 05:17:56;;;;;;;9.37;4.00;;;;;;;14.91;61.62;96677.44;5081700;28;20040;-78
2021/06/03 05:20:25;;;;;;;6.70;3.73;;;;;;;15.19;61.43;96680.38;5060546;28;20039;-78
2021/06/03 05:22:53;;;;;;;6.67;4.10;;;;;;;15.40;60.95;96675.25;5063384;28;20496;-78
2021/06/03 05:25:22;;;;;;;6.50;4.10;;;;;;;15.46;61.56;96676.34;5062599;28;20070;-78
2021/06/03 05:27:52;;;;;;;6.23;2.90;;;;;;;15.57;61.52;96675.94;5064451;28;20401;-78
2021/06/03 05:30:20;;;;;;;7.27;4.10;;;;;;;15.92;61.00;96674.47;5082154;28;20114;-78
2021/06/03 05:32:46;;;;;;;10.23;4.67;;;;;;;15.99;61.37;96671.91;5073026;28;20440;-77
2021/06/03 05:35:15;;;;;;;6.70;4.20;;;;;;;16.12;61.83;96676.59;5068987;28;20114;-78
2021/06/03 05:37:46;;;;;;;6.33;3.77;;;;;;;16.39;60.37;96677.75;5054962;28;20043;-78
2021/06/03 05:40:17;;;;;;;7.97;4.50;;;;;;;16.63;58.97;96680.13;5061559;28;20032;-79
2021/06/03 05:42:43;;;;;;;6.33;3.47;;;;;;;16.82;59.20;96685.88;5075173;28;20704;-78
2021/06/03 05:45:11;;;;;;;8.10;4.00;;;;;;;16.91;59.00;96685.56;5058160;28;20047;-78
2021/06/03 05:47:37;;;;;;;7.03;3.90;;;;;;;17.18;58.48;96688.50;5060107;28;20055;-78
2021/06/03 05:50:09;;;;;;;9.53;3.90;;;;;;;17.57;56.84;96690.72;5060934;28;20115;-79
2021/06/03 05:52:40;;;;;;;6.83;4.23;;;;;;;17.76;55.06;96686.56;5061878;28;20028;-78
2021/06/03 05:55:09;;;;;;;7.60;3.97;;;;;;;18.03;54.55;96684.91;5052360;28;20531;-79
2021/06/03 05:58:15;;;;;;;8.70;3.93;;;;;;;18.32;54.23;96697.19;5066135;28;20050;-78
2021/06/03 06:00:42;;;;;;;6.37;3.70;;;;;;;18.60;53.99;96698.94;5066983;28;20070;-77
2021/06/03 06:03:28;;;;;;;6.03;3.70;;;;;;;18.75;53.84;96691.69;5082653;28;20024;-78
2021/06/03 06:06:53;;;;;;;7.57;4.00;;;;;;;19.23;52.31;96694.28;5073821;28;20032;-78
2021/06/03 06:08:49;;;;;;;7.88;4.78;;;;;;;19.51;51.68;96698.59;5061015;28;20123;-78
2021/06/03 06:11:15;;;;;;;7.10;4.13;;;;;;;19.52;51.85;96709.09;5060112;28;20089;-78
2021/06/03 06:13:40;;;;;;;5.30;3.90;;;;;;;19.81;51.70;96704.41;5065123;28;20115;-78
2021/06/03 06:16:06;;;;;;;8.38;3.88;;;;;;;20.47;50.31;96706.16;5065263;28;20019;-78
2021/06/03 06:18:32;;;;;;;7.50;3.60;;;;;;;20.37;51.31;96709.25;5081849;28;20064;-78
2021/06/03 06:20:58;;;;;;;7.13;3.78;;;;;;;20.32;51.93;96719.75;5062179;28;20057;-79
2021/06/03 06:23:39;;;;;;;5.60;3.70;;;;;;;19.76;53.82;96730.88;5063650;28;20165;-78
2021/06/03 06:26:06;;;;;;;8.27;4.30;;;;;;;19.98;53.45;96728.81;5060873;28;20036;-78
2021/06/03 06:28:33;;;;;;;8.23;3.67;;;;;;;20.13;53.40;96731.28;5058341;28;20444;-78
2021/06/03 06:31:00;;;;;;;9.60;4.40;;;;;;;20.24;53.65;96733.31;5065059;28;20036;-78
2021/06/03 06:33:26;;;;;;;7.07;3.88;;;;;;;20.69;52.70;96725.41;5074085;28;20066;-78
2021/06/03 06:35:52;;;;;;;5.65;3.67;;;;;;;20.67;52.70;96738.19;5056013;28;20072;-78
2021/06/03 06:38:20;;;;;;;5.53;3.45;;;;;;;20.87;52.12;96735.44;5064326;28;20059;-78
2021/06/03 06:40:47;;;;;;;5.78;3.83;;;;;;;20.98;52.11;96739.31;5069925;28;20036;-78
2021/06/03 06:43:17;;;;;;;5.65;3.58;;;;;;;21.34;50.81;96741.38;5077156;28;20073;-79
2021/06/03 06:45:44;;;;;;;10.35;3.55;;;;;;;21.26;50.55;96744.28;5065703;28;20112;-78
2021/06/03 06:48:15;;;;;;;4.97;3.50;;;;;;;21.52;50.25;96744.19;5085061;28;20677;-78
2021/06/03 06:50:43;;;;;;;7.20;3.90;;;;;;;21.90;49.70;96737.94;5082929;28;20138;-79
2021/06/03 06:53:10;;;;;;;5.25;3.60;;;;;;;21.89;48.83;96742.47;5066454;28;20081;-78
2021/06/03 06:55:37;;;;;;;7.70;4.13;;;;;;;21.61;50.05;96740.22;5059102;28;20641;-78
2021/06/03 06:58:04;;;;;;;8.38;5.20;;;;;;;21.55;51.23;96745.59;5080357;28;20089;-78
2021/06/03 07:00:35;;;;;;;11.50;6.60;;;;;;;21.19;52.39;96745.19;5054855;28;20028;-79
2021/06/03 07:03:01;;;;;;;17.80;7.72;;;;;;;21.58;52.55;96739.81;5054174;28;20040;-79
2021/06/03 07:05:27;;;;;;;9.90;6.65;;;;;;;22.28;51.13;96737.03;5059767;28;20115;-79
2021/06/03 07:07:54;;;;;;;11.98;6.90;;;;;;;22.84;48.56;96725.28;5063085;28;20032;-79
2021/06/03 07:10:25;;;;;;;9.15;5.40;;;;;;;23.43;47.33;96726.38;5073920;28;20039;-78
2021/06/03 07:12:52;;;;;;;5.72;3.80;;;;;;;24.12;47.26;96734.03;5068781;28;20032;-79
2021/06/03 07:15:19;;;;;;;5.13;3.10;;;;;;;23.21;48.51;96733.31;5062004;28;20029;-79
2021/06/03 07:17:45;;;;;;;5.40;2.78;;;;;;;23.52;47.91;96729.56;5056019;28;20480;-79
2021/06/03 07:20:18;;;;;;;6.22;3.22;;;;;;;23.64;47.39;96743.00;5081692;28;20476;-79
2021/06/03 07:22:47;;;;;;;8.15;3.60;;;;;;;24.28;46.24;96727.13;5062532;28;20032;-79
2021/06/03 07:25:20;;;;;;;5.25;3.08;;;;;;;23.68;47.21;96739.69;5071447;28;20081;-79
2021/06/03 07:27:47;;;;;;;5.75;3.13;;;;;;;23.71;47.45;96730.38;5069245;28;20032;-79
2021/06/03 07:30:28;;;;;;;6.75;3.75;;;;;;;24.33;45.72;96724.56;5067521;28;20016;-79
2021/06/03 07:32:56;;;;;;;3.97;2.40;;;;;;;24.17;45.97;96731.44;5069038;28;20042;-79
2021/06/03 07:35:26;;;;;;;4.05;2.50;;;;;;;24.67;44.44;96723.72;5072891;28;20123;-79
2021/06/03 07:37:52;;;;;;;4.05;2.17;;;;;;;24.73;43.70;96723.84;5060698;28;20070;-78
2021/06/03 07:40:27;;;;;;;5.72;2.30;;;;;;;24.83;43.25;96724.06;5078035;28;20394;-78
2021/06/03 07:42:54;;;;;;;3.22;1.90;;;;;;;23.61;46.51;96733.56;5065562;28;20600;-78
2021/06/03 07:45:23;;;;;;;4.68;2.20;;;;;;;23.61;46.58;96738.94;5064803;28;20544;-79
2021/06/03 07:47:51;;;;;;;4.93;2.78;;;;;;;23.01;48.38;96741.63;5073745;28;20129;-78
2021/06/03 07:50:17;;;;;;;3.08;2.15;;;;;;;23.50;48.22;96739.72;5068584;28;20103;-79
2021/06/03 07:52:43;;;;;;;8.02;3.83;;;;;;;24.56;46.16;96729.97;5081690;28;20065;-79
2021/06/03 07:55:12;;;;;;;4.63;2.78;;;;;;;24.70;44.19;96736.72;5067552;28;20019;-77
2021/06/03 07:57:38;;;;;;;4.05;2.25;;;;;;;24.08;45.90;96733.69;5077150;28;20047;-79
2021/06/03 08:00:07;;;;;;;5.13;2.17;;;;;;;24.40;45.27;96736.00;5073585;28;20027;-77
2021/06/03 08:02:43;;;;;;;3.70;2.03;;;;;;;24.25;46.46;96733.00;5082081;28;20031;-85
2021/06/03 08:05:15;;;;;;;6.07;2.40;;;;;;;24.37;46.36;96737.28;5072837;28;20040;-85
2021/06/03 08:07:41;;;;;;;3.50;1.92;;;;;;;25.29;43.03;96727.69;5057488;28;20028;-84
2021/06/03 08:10:09;;;;;;;5.07;2.38;;;;;;;25.60;43.01;96737.13;5086698;28;20027;-85
2021/06/03 08:12:35;;;;;;;3.47;1.80;;;;;;;25.19;43.58;96732.88;5077956;28;20059;-84
2021/06/03 08:15:06;;;;;;;4.70;2.10;;;;;;;24.64;44.07;96737.66;5062887;28;20070;-85
2021/06/03 08:17:32;;;;;;;3.75;2.20;;;;;;;25.44;42.02;96730.66;5081350;28;20085;-83
2021/06/03 08:19:57;;;;;;;3.58;2.20;;;;;;;26.29;41.00;96731.53;5069190;28;20032;-84
2021/06/03 08:22:23;;;;;;;3.53;2.13;;;;;;;27.09;39.25;96730.22;5063211;28;20132;-84
2021/06/03 08:24:49;;;;;;;3.60;1.90;;;;;;;27.34;38.76;96732.41;5062420;28;20047;-85
2021/06/03 08:27:22;;;;;;;3.75;2.28;;;;;;;28.32;36.01;96726.00;5078770;28;20059;-78
2021/06/03 08:29:48;;;;;;;4.22;2.00;;;;;;;28.05;37.30;96731.47;5055944;28;20432;-80
2021/06/03 08:32:13;;;;;;;4.55;1.80;;;;;;;29.17;35.69;96725.94;5074118;28;20027;-79
2021/06/03 08:34:39;;;;;;;5.13;2.40;;;;;;;28.74;35.89;96728.72;5082911;28;20039;-83
2021/06/03 08:37:05;;;;;;;3.75;2.17;;;;;;;29.75;33.99;96727.47;5061288;28;20105;-83
2021/06/03 08:39:31;;;;;;;3.25;2.20;;;;;;;29.09;35.43;96730.78;5081859;28;20471;-84
2021/06/03 08:41:58;;;;;;;4.13;2.08;;;;;;;30.47;33.21;96722.00;5064385;28;20023;-83
2021/06/03 08:44:28;;;;;;;3.75;2.00;;;;;;;30.02;33.22;96734.53;5077463;28;20103;-83
2021/06/03 08:46:55;;;;;;;3.70;2.05;;;;;;;29.26;35.43;96735.19;5078901;28;20029;-83
2021/06/03 08:49:24;;;;;;;3.58;2.28;;;;;;;29.58;34.67;96732.28;5056797;28;20020;-84
2021/06/03 08:51:52;;;;;;;9.70;7.22;;;;;;;28.69;36.68;96738.69;5077557;28;20024;-83
2021/06/03 08:54:18;;;;;;;8.05;4.85;;;;;;;28.03;37.54;96741.72;5058782;28;20028;-82
2021/06/03 08:56:44;;;;;;;4.60;2.13;;;;;;;28.01;38.86;96739.28;5059850;28;20033;-84
2021/06/03 08:59:10;;;;;;;3.75;2.30;;;;;;;28.34;37.04;96743.59;5064026;28;20477;-83
2021/06/03 09:01:41;;;;;;;3.47;2.33;;;;;;;27.42;39.94;96745.47;5059169;28;20028;-83
2021/06/03 09:04:07;;;;;;;5.13;2.38;;;;;;;26.49;40.38;96744.53;5060638;28;20669;-83
2021/06/03 09:06:32;;;;;;;4.90;2.42;;;;;;;26.83;41.11;96741.75;5056268;28;20023;-83
2021/06/03 09:08:59;;;;;;;3.55;2.45;;;;;;;26.39;41.00;96742.50;5063585;28;20024;-83
2021/06/03 09:11:28;;;;;;;3.05;2.25;;;;;;;27.75;38.80;96735.53;5059103;28;20041;-82
2021/06/03 09:14:05;;;;;;;3.30;2.20;;;;;;;28.15;38.54;96736.97;5036364;28;20474;-81
2021/06/03 09:16:33;;;;;;;3.63;2.17;;;;;;;27.30;39.95;96735.88;5038985;28;20047;-84
2021/06/03 09:19:06;;;;;;;3.15;2.15;;;;;;;27.82;38.95;96741.56;5034930;28;20025;-83
2021/06/03 09:21:53;;;;;;;3.95;2.30;;;;;;;27.10;39.85;96742.66;5066193;28;20136;-83
2021/06/03 09:24:25;;;;;;;3.78;2.13;;;;;;;28.59;37.98;96731.34;5043595;28;20112;-83
2021/06/03 09:26:56;;;;;;;4.90;2.30;;;;;;;30.16;34.86;96727.47;5041081;28;20028;-83
2021/06/03 09:29:28;;;;;;;6.78;2.05;;;;;;;30.62;33.03;96723.88;5044614;28;20035;-83
2021/06/03 09:32:15;;;;;;;3.25;2.20;;;;;;;29.88;35.51;96728.00;5044007;28;20063;-84
2021/06/03 09:34:54;;;;;;;3.42;2.65;;;;;;;30.73;31.04;96729.00;5043399;28;20036;-83
2021/06/03 09:37:20;;;;;;;3.63;1.90;;;;;;;31.42;31.39;96724.69;5040991;28;20028;-84
2021/06/03 09:39:46;;;;;;;5.97;1.88;;;;;;;32.07;29.90;96710.94;5047495;28;20704;-84
2021/06/03 09:42:19;;;;;;;4.90;2.00;;;;;;;31.64;30.63;96713.41;5059495;28;20036;-83
2021/06/03 09:44:50;;;;;;;3.65;1.85;;;;;;;32.15;29.93;96717.66;5038441;28;20082;-84
2021/06/03 09:47:18;;;;;;;3.05;2.20;;;;;;;31.55;31.01;96709.66;5043358;28;20039;-84
2021/06/03 09:49:46;;;;;;;2.95;1.95;;;;;;;31.67;29.00;96712.03;5056113;28;20090;-84
2021/06/03 09:52:15;;;;;;;3.90;1.90;;;;;;;32.05;28.67;96712.31;5031740;28;20036;-84
2021/06/03 09:54:46;;;;;;;7.97;1.73;;;;;;;31.56;30.20;96713.19;5040409;28;20025;-84
2021/06/03 09:57:13;;;;;;;2.35;1.77;;;;;;;31.15;30.80;96722.34;5039101;28;20211;-84
2021/06/03 09:59:44;;;;;;;4.03;1.85;;;;;;;30.24;30.50;96726.94;5057291;28;20024;-85
2021/06/03 10:02:20;;;;;;;3.20;2.15;;;;;;;31.84;28.74;96711.63;5048405;28;20062;-84
2021/06/03 10:04:48;;;;;;;3.60;1.95;;;;;;;31.79;28.54;96711.66;5055407;28;20478;-84
2021/06/03 10:07:22;;;;;;;2.47;1.55;;;;;;;31.69;28.88;96712.53;5045403;28;20024;-84
2021/06/03 10:10:02;;;;;;;2.70;1.50;;;;;;;32.50;27.57;96710.28;5056262;28;20347;-84
2021/06/03 10:12:33;;;;;;;5.57;2.22;;;;;;;31.66;29.58;96713.94;5048456;28;20035;-84
2021/06/03 10:15:00;;;;;;;5.57;2.20;;;;;;;31.08;30.60;96710.16;5060849;28;20566;-84
2021/06/03 10:17:31;;;;;;;3.00;1.90;;;;;;;31.59;30.41;96709.91;5060444;28;20019;-83
2021/06/03 10:20:06;;;;;;;4.00;2.03;;;;;;;31.88;30.17;96702.63;5059087;28;20050;-84
2021/06/03 10:22:38;;;;;;;6.40;2.70;;;;;;;32.16;30.02;96714.66;5059318;28;20533;-83
2021/06/03 10:25:11;;;;;;;6.13;2.60;;;;;;;33.58;27.93;96702.44;5056770;28;20485;-84
2021/06/03 10:27:42;;;;;;;4.53;2.30;;;;;;;31.90;30.01;96715.97;5062542;28;20047;-83
2021/06/03 10:30:09;;;;;;;4.70;2.10;;;;;;;32.45;29.66;96705.69;5063668;28;20066;-84
2021/06/03 10:32:37;;;;;;;3.08;1.80;;;;;;;33.46;27.26;96711.00;5056689;28;20027;-84
2021/06/03 10:35:09;;;;;;;4.10;1.98;;;;;;;31.87;29.64;96706.47;5070020;28;20033;-84
2021/06/03 10:37:37;;;;;;;;;;;;;;;33.20;28.90;96701.56;5068910;28;20024;-85
2021/06/03 10:40:10;;;;;;;5.10;2.20;;;;;;;31.78;30.48;96697.25;5072139;28;20615;-84
2021/06/03 10:42:40;;;;;;;;;;;;;;;32.84;28.47;96700.09;5066704;28;20024;-84
2021/06/03 10:45:11;;;;;;;5.28;2.30;;;;;;;31.92;30.63;96702.88;5065093;28;19912;-84
2021/06/03 10:47:37;;;;;;;3.38;2.28;;;;;;;31.40;29.44;96690.75;5065125;28;20097;-83
2021/06/03 10:50:07;;;;;;;5.20;2.10;;;;;;;30.82;30.59;96690.44;5058978;28;20070;-84
2021/06/03 10:52:37;;;;;;;3.78;1.98;;;;;;;31.47;30.34;96696.66;5072971;28;20062;-83
2021/06/03 10:55:06;;;;;;;4.85;2.30;;;;;;;31.29;30.14;96684.53;5076134;28;20039;-84
2021/06/03 10:57:54;;;;;;;2.17;1.73;;;;;;;31.34;30.99;96691.84;5061476;28;20035;-83
2021/06/03 11:00:42;;;;;;;3.10;2.03;;;;;;;32.56;28.30;96682.72;5064215;28;20097;-83
2021/06/03 11:03:23;;;;;;;3.55;2.17;;;;;;;32.30;28.81;96684.06;5079058;28;20032;-84
2021/06/03 11:06:00;;;;;;;2.90;1.90;;;;;;;33.15;28.07;96685.28;5084694;28;20032;-84
2021/06/03 11:08:41;;;;;;;3.80;2.08;;;;;;;31.84;30.02;96679.00;5069212;28;20126;-87
2021/06/03 11:11:10;;;;;;;4.55;2.03;;;;;;;32.36;28.35;96680.16;5071800;28;20043;-87
2021/06/03 11:14:10;;;;;;;4.97;1.88;;;;;;;34.08;26.51;96677.38;5062070;28;20016;-88
2021/06/03 11:16:35;;;;;;;3.72;2.30;;;;;;;32.76;28.06;96680.84;5059572;28;20035;-87
2021/06/03 11:19:01;;;;;;;4.38;1.80;;;;;;;33.87;26.16;96676.88;5059445;28;20091;-87
2021/06/03 11:21:41;;;;;;;4.07;2.40;;;;;;;33.58;25.85;96660.72;5063346;28;20031;-87
2021/06/03 11:24:10;;;;;;;3.17;1.90;;;;;;;33.40;26.48;96663.13;5066811;28;20093;-88
2021/06/03 11:26:39;;;;;;;3.58;2.20;;;;;;;30.18;30.92;96681.06;5060305;28;20081;-87
2021/06/03 11:29:15;;;;;;;4.10;2.17;;;;;;;32.02;28.38;96658.47;5079734;28;20024;-87
2021/06/03 11:31:47;;;;;;;5.10;1.90;;;;;;;32.54;27.66;96660.41;5065347;28;20035;-87
2021/06/03 11:34:15;;;;;;;3.85;2.05;;;;;;;32.40;28.02;96659.44;5060196;28;20123;-87
2021/06/03 11:36:43;;;;;;;4.60;2.28;;;;;;;31.50;28.80;96662.69;5058004;28;20031;-87
2021/06/03 11:39:51;;;;;;;3.22;1.80;;;;;;;32.21;28.77;96651.19;5061913;28;20780;-87
2021/06/03 11:42:36;;;;;;;4.95;2.20;;;;;;;32.07;29.12;96650.25;5023278;28;20036;-87
2021/06/03 11:45:07;;;;;;;5.82;2.20;;;;;;;29.63;31.77;96671.88;5073219;28;20582;-87
2021/06/03 11:47:36;;;;;;;4.90;2.65;;;;;;;30.76;28.91;96657.91;5079082;28;20094;-87